createdAt,value
2022-07-31T00:00:22.029Z,16.59
2022-07-31T00:02:49.494Z,16.61
2022-07-31T00:05:16.887Z,16.80
2022-07-31T00:07:44.541Z,16.70
2022-07-31T00:10:11.988Z,16.46
2022-07-31T00:12:40.869Z,16.30
2022-07-31T00:15:10.689Z,16.27
2022-07-31T00:17:38.688Z,16.24
2022-07-31T00:20:07.724Z,16.40
2022-07-31T00:22:35.498Z,16.14
2022-07-31T00:25:02.908Z,16.20
2022-07-31T00:27:30.413Z,16.18
2022-07-31T00:29:59.139Z,16.31
2022-07-31T00:32:26.610Z,16.20
2022-07-31T00:34:54.095Z,16.21
2022-07-31T00:37:21.710Z,16.15
2022-07-31T00:39:49.426Z,16.03
2022-07-31T00:42:20.079Z,16.12
2022-07-31T00:44:48.566Z,16.15
2022-07-31T00:47:18.447Z,16.13
2022-07-31T00:49:51.605Z,15.94
2022-07-31T00:52:19.021Z,16.03
2022-07-31T00:54:46.551Z,15.97
2022-07-31T00:57:15.178Z,15.98
2022-07-31T00:59:43.666Z,15.87
2022-07-31T01:02:11.680Z,15.96
2022-07-31T01:04:41.609Z,15.96
2022-07-31T01:07:09.724Z,15.95
2022-07-31T01:09:37.477Z,16.27
2022-07-31T01:12:13.925Z,16.19
2022-07-31T01:14:44.812Z,16.02
2022-07-31T01:17:13.928Z,15.98
2022-07-31T01:19:45.383Z,16.04
2022-07-31T01:22:32.960Z,15.97
2022-07-31T01:25:10.606Z,15.87
2022-07-31T01:27:53.150Z,15.71
2022-07-31T01:30:30.308Z,15.76
2022-07-31T01:33:02.377Z,15.84
2022-07-31T01:35:33.843Z,15.86
2022-07-31T01:38:09.524Z,15.76
2022-07-31T01:40:43.055Z,15.79
2022-07-31T01:43:14.067Z,15.81
2022-07-31T01:45:45.832Z,15.80
2022-07-31T01:48:17.133Z,15.62
2022-07-31T01:50:47.365Z,15.72
2022-07-31T01:53:18.510Z,15.69
2022-07-31T01:56:02.901Z,15.63
2022-07-31T01:58:35.527Z,15.64
2022-07-31T02:01:06.403Z,15.50
2022-07-31T02:03:43.786Z,15.73
2022-07-31T02:06:15.020Z,15.47
2022-07-31T02:08:44.998Z,15.46
2022-07-31T02:11:14.019Z,15.45
2022-07-31T02:13:41.907Z,15.45
2022-07-31T02:16:10.873Z,15.44
2022-07-31T02:18:38.951Z,15.53
2022-07-31T02:21:06.693Z,15.49
2022-07-31T02:23:35.401Z,15.39
2022-07-31T02:26:04.645Z,15.42
2022-07-31T02:28:33.520Z,15.39
2022-07-31T02:31:02.229Z,15.39
2022-07-31T02:33:35.521Z,15.26
2022-07-31T02:36:04.023Z,15.26
2022-07-31T02:38:33.541Z,15.38
2022-07-31T02:41:04.845Z,15.21
2022-07-31T02:43:34.904Z,15.23
2022-07-31T02:46:04.032Z,15.27
2022-07-31T02:48:33.647Z,15.24
2022-07-31T02:51:01.546Z,15.17
2022-07-31T02:53:30.512Z,15.14
2022-07-31T02:55:58.955Z,14.94
2022-07-31T02:58:26.408Z,15.05
2022-07-31T03:01:00.142Z,14.83
2022-07-31T03:03:27.645Z,14.93
2022-07-31T03:05:56.404Z,14.91
2022-07-31T03:08:23.939Z,14.97
2022-07-31T03:10:51.628Z,15.14
2022-07-31T03:13:20.886Z,15.07
2022-07-31T03:15:50.940Z,15.00
2022-07-31T03:18:19.603Z,14.94
2022-07-31T03:20:51.624Z,14.92
2022-07-31T03:23:23.263Z,14.86
2022-07-31T03:25:52.085Z,14.94
2022-07-31T03:28:20.317Z,14.80
2022-07-31T03:30:48.427Z,14.83
2022-07-31T03:33:15.825Z,14.67
2022-07-31T03:35:44.582Z,14.80
2022-07-31T03:38:41.184Z,14.67
2022-07-31T03:41:00.932Z,14.75
2022-07-31T03:43:29.876Z,14.89
2022-07-31T03:46:12.797Z,14.79
2022-07-31T03:48:40.810Z,14.90
2022-07-31T03:51:08.748Z,14.73
2022-07-31T03:53:36.623Z,14.75
2022-07-31T03:56:07.243Z,14.79
2022-07-31T03:58:36.720Z,14.90
2022-07-31T04:01:10.382Z,14.91
2022-07-31T04:03:39.629Z,14.91
2022-07-31T04:06:07.568Z,15.02
2022-07-31T04:08:35.083Z,15.08
2022-07-31T04:11:02.527Z,15.17
2022-07-31T04:13:31.272Z,15.13
2022-07-31T04:15:58.650Z,15.03
2022-07-31T04:18:26.063Z,14.92
2022-07-31T04:20:53.437Z,15.04
2022-07-31T04:23:20.928Z,15.19
2022-07-31T04:25:49.771Z,15.15
2022-07-31T04:28:17.253Z,15.24
2022-07-31T04:30:45.981Z,15.41
2022-07-31T04:33:14.976Z,15.48
2022-07-31T04:35:42.526Z,15.92
2022-07-31T04:38:11.935Z,16.87
2022-07-31T04:40:39.426Z,17.77
2022-07-31T04:43:06.859Z,18.24
2022-07-31T04:45:34.268Z,18.01
2022-07-31T04:48:03.486Z,17.81
2022-07-31T04:50:31.119Z,17.64
2022-07-31T04:52:58.544Z,17.52
2022-07-31T04:55:26.838Z,17.54
2022-07-31T04:57:54.272Z,17.58
2022-07-31T05:00:21.930Z,17.65
2022-07-31T05:02:49.368Z,17.83
2022-07-31T05:05:18.329Z,17.89
2022-07-31T05:07:45.943Z,18.01
2022-07-31T05:10:34.108Z,18.06
2022-07-31T05:13:01.512Z,18.17
2022-07-31T05:15:29.032Z,18.24
2022-07-31T05:17:56.458Z,18.14
2022-07-31T05:20:25.301Z,18.27
2022-07-31T05:22:52.714Z,18.51
2022-07-31T05:25:20.180Z,18.81
2022-07-31T05:27:47.644Z,18.93
2022-07-31T05:30:17.589Z,18.93
2022-07-31T05:32:58.372Z,19.15
2022-07-31T05:35:27.107Z,19.38
2022-07-31T05:37:54.573Z,19.46
2022-07-31T05:40:22.025Z,19.44
2022-07-31T05:42:49.424Z,19.49
2022-07-31T05:45:17.620Z,19.87
2022-07-31T05:47:45.055Z,19.47
2022-07-31T05:50:12.776Z,19.78
2022-07-31T05:52:41.499Z,19.91
2022-07-31T05:55:09.815Z,20.13
2022-07-31T05:57:37.206Z,20.17
2022-07-31T06:00:05.863Z,20.38
2022-07-31T06:02:33.301Z,20.83
2022-07-31T06:05:01.494Z,21.21
2022-07-31T06:07:29.963Z,20.89
2022-07-31T06:09:58.694Z,21.15
2022-07-31T06:12:26.130Z,21.25
2022-07-31T06:14:53.517Z,21.13
2022-07-31T06:17:20.946Z,21.10
2022-07-31T06:19:49.897Z,21.13
2022-07-31T06:22:17.303Z,21.22
2022-07-31T06:24:44.718Z,21.46
2022-07-31T06:27:33.914Z,21.65
2022-07-31T06:30:00.900Z,21.83
2022-07-31T06:32:28.304Z,21.54
2022-07-31T06:34:55.723Z,21.58
2022-07-31T06:37:23.330Z,21.47
2022-07-31T06:39:55.919Z,21.62
2022-07-31T06:42:26.687Z,21.92
2022-07-31T06:44:54.790Z,22.12
2022-07-31T06:47:24.186Z,21.89
2022-07-31T06:49:51.999Z,21.93
2022-07-31T06:52:19.780Z,22.23
2022-07-31T06:54:47.834Z,22.15
2022-07-31T06:57:15.465Z,22.28
2022-07-31T06:59:44.190Z,22.58
2022-07-31T07:02:11.580Z,22.71
2022-07-31T07:04:58.402Z,23.04
2022-07-31T07:07:31.543Z,23.61
2022-07-31T07:09:59.585Z,23.83
2022-07-31T07:12:27.005Z,23.67
2022-07-31T07:14:57.945Z,23.71
2022-07-31T07:17:29.032Z,24.58
2022-07-31T07:19:57.053Z,25.09
2022-07-31T07:22:29.905Z,25.92
2022-07-31T07:25:00.012Z,25.80
2022-07-31T07:27:27.543Z,26.55
2022-07-31T07:29:54.945Z,26.86
2022-07-31T07:32:23.655Z,27.32
2022-07-31T07:34:59.595Z,26.62
2022-07-31T07:37:28.375Z,27.09
2022-07-31T07:39:55.840Z,26.82
2022-07-31T07:42:23.540Z,26.15
2022-07-31T07:44:50.982Z,26.04
2022-07-31T07:47:18.383Z,26.00
2022-07-31T07:49:47.117Z,25.75
2022-07-31T07:52:14.846Z,25.45
2022-07-31T07:54:43.208Z,25.12
2022-07-31T07:57:14.924Z,25.13
2022-07-31T07:59:42.386Z,25.13
2022-07-31T08:02:10.405Z,24.95
2022-07-31T08:04:37.821Z,25.10
2022-07-31T08:07:06.778Z,24.53
2022-07-31T08:09:35.026Z,24.70
2022-07-31T08:12:04.004Z,24.71
2022-07-31T08:14:31.687Z,25.07
2022-07-31T08:16:59.112Z,25.04
2022-07-31T08:19:26.525Z,25.13
2022-07-31T08:21:53.926Z,25.19
2022-07-31T08:24:22.687Z,24.94
2022-07-31T08:27:10.591Z,25.21
2022-07-31T08:29:38.879Z,25.44
2022-07-31T08:32:10.291Z,25.48
2022-07-31T08:34:41.764Z,25.86
2022-07-31T08:37:52.564Z,25.89
2022-07-31T08:39:58.469Z,25.73
2022-07-31T08:42:26.258Z,25.65
2022-07-31T08:44:53.705Z,25.87
2022-07-31T08:47:23.226Z,26.36
2022-07-31T08:49:50.976Z,26.38
2022-07-31T08:52:21.188Z,26.60
2022-07-31T08:54:51.420Z,26.52
2022-07-31T08:57:21.022Z,26.44
2022-07-31T08:59:52.306Z,26.48
2022-07-31T09:02:19.954Z,25.90
2022-07-31T09:04:52.239Z,26.19
2022-07-31T09:07:20.363Z,26.37
2022-07-31T09:09:52.108Z,26.49
2022-07-31T09:12:33.534Z,26.28
2022-07-31T09:15:01.832Z,26.68
2022-07-31T09:17:34.285Z,26.87
2022-07-31T09:20:02.056Z,26.84
2022-07-31T09:22:30.953Z,27.34
2022-07-31T09:25:13.078Z,27.47
2022-07-31T09:27:41.917Z,27.00
2022-07-31T09:30:10.813Z,27.21
2022-07-31T09:32:38.276Z,26.95
2022-07-31T09:35:10.697Z,26.98
2022-07-31T09:37:39.134Z,27.37
2022-07-31T09:40:08.231Z,27.75
2022-07-31T09:42:46.062Z,27.45
2022-07-31T09:45:21.366Z,27.89
2022-07-31T09:48:02.853Z,27.39
2022-07-31T09:50:30.381Z,27.55
2022-07-31T09:53:01.748Z,27.77
2022-07-31T09:55:29.603Z,28.20
2022-07-31T09:57:59.794Z,28.39
2022-07-31T10:00:28.428Z,28.43
2022-07-31T10:02:57.282Z,28.36
2022-07-31T10:05:26.341Z,28.40
2022-07-31T10:07:54.987Z,28.01
2022-07-31T10:10:23.129Z,27.37
2022-07-31T10:12:53.720Z,27.37
2022-07-31T10:15:24.260Z,27.54
2022-07-31T10:17:54.763Z,27.77
2022-07-31T10:20:25.532Z,27.56
2022-07-31T10:22:56.525Z,27.47
2022-07-31T10:25:26.955Z,28.18
2022-07-31T10:27:56.997Z,28.03
2022-07-31T10:30:28.540Z,27.51
2022-07-31T10:32:56.521Z,27.12
2022-07-31T10:35:24.128Z,26.86
2022-07-31T10:37:59.189Z,27.41
2022-07-31T10:40:32.044Z,27.31
2022-07-31T10:43:17.335Z,26.84
2022-07-31T10:45:50.584Z,26.61
2022-07-31T10:48:18.343Z,26.28
2022-07-31T10:50:46.009Z,26.29
2022-07-31T10:53:16.856Z,26.39
2022-07-31T10:55:45.031Z,26.65
2022-07-31T10:58:14.245Z,27.59
2022-07-31T11:00:41.786Z,28.64
2022-07-31T11:03:15.562Z,27.98
2022-07-31T11:06:01.651Z,27.32
2022-07-31T11:08:41.784Z,27.53
2022-07-31T11:11:09.336Z,27.80
2022-07-31T11:13:47.255Z,27.06
2022-07-31T11:16:14.759Z,26.63
2022-07-31T11:18:46.063Z,26.82
2022-07-31T11:21:35.900Z,27.16
2022-07-31T11:24:03.153Z,27.92
2022-07-31T11:26:41.405Z,28.20
2022-07-31T11:30:02.012Z,28.05
2022-07-31T11:32:00.604Z,28.64
2022-07-31T11:34:29.394Z,28.61
2022-07-31T11:36:56.901Z,28.78
2022-07-31T11:39:36.313Z,28.79
2022-07-31T11:42:07.522Z,28.63
2022-07-31T11:44:35.452Z,28.00
2022-07-31T11:47:03.088Z,27.54
2022-07-31T11:49:47.739Z,27.10
2022-07-31T11:52:31.135Z,27.25
2022-07-31T11:55:08.863Z,28.10
2022-07-31T11:57:51.730Z,28.48
2022-07-31T12:00:26.836Z,28.71
2022-07-31T12:02:57.630Z,27.89
2022-07-31T12:05:38.460Z,27.49
2022-07-31T12:08:07.740Z,27.05
2022-07-31T12:10:35.467Z,26.80
2022-07-31T12:13:03.342Z,26.75
2022-07-31T12:15:30.843Z,27.12
2022-07-31T12:18:02.079Z,27.90
2022-07-31T12:20:38.484Z,28.45
2022-07-31T12:23:06.862Z,27.98
2022-07-31T12:25:41.960Z,27.71
2022-07-31T12:28:10.958Z,27.68
2022-07-31T12:30:38.664Z,27.65
2022-07-31T12:33:07.797Z,28.34
2022-07-31T12:35:56.242Z,28.20
2022-07-31T12:38:40.964Z,27.68
2022-07-31T12:41:12.843Z,28.29
2022-07-31T12:43:50.952Z,28.78
2022-07-31T12:46:19.758Z,28.48
2022-07-31T12:48:47.192Z,28.70
2022-07-31T12:51:16.871Z,28.72
2022-07-31T12:53:44.354Z,28.77
2022-07-31T12:56:12.653Z,28.95
2022-07-31T12:58:40.085Z,29.26
2022-07-31T13:01:07.559Z,29.46
2022-07-31T13:03:45.588Z,29.70
2022-07-31T13:06:14.172Z,29.31
2022-07-31T13:08:43.946Z,29.16
2022-07-31T13:11:11.514Z,29.31
2022-07-31T13:13:38.956Z,29.20
2022-07-31T13:16:06.778Z,29.11
2022-07-31T13:18:35.612Z,29.04
2022-07-31T13:21:03.108Z,29.01
2022-07-31T13:23:30.723Z,29.03
2022-07-31T13:26:00.144Z,29.36
2022-07-31T13:28:27.703Z,29.41
2022-07-31T13:30:55.482Z,29.13
2022-07-31T13:33:23.082Z,29.07
2022-07-31T13:35:50.578Z,29.33
2022-07-31T13:38:17.977Z,29.34
2022-07-31T13:41:02.810Z,29.02
2022-07-31T13:43:31.602Z,29.00
2022-07-31T13:45:59.070Z,29.18
2022-07-31T13:48:26.567Z,29.22
2022-07-31T13:50:53.963Z,29.30
2022-07-31T13:53:21.371Z,29.38
2022-07-31T13:55:50.335Z,28.94
2022-07-31T13:58:17.877Z,28.94
2022-07-31T14:00:46.710Z,28.99
2022-07-31T14:03:15.247Z,29.10
2022-07-31T14:05:45.936Z,29.09
2022-07-31T14:08:32.976Z,29.18
2022-07-31T14:11:04.049Z,29.21
2022-07-31T14:13:42.497Z,29.38
2022-07-31T14:16:11.519Z,29.08
2022-07-31T14:18:38.940Z,28.98
2022-07-31T14:21:07.392Z,29.13
2022-07-31T14:23:40.202Z,29.04
2022-07-31T14:26:08.314Z,28.59
2022-07-31T14:28:35.703Z,28.25
2022-07-31T14:31:03.197Z,28.19
2022-07-31T14:33:31.924Z,28.21
2022-07-31T14:35:59.387Z,28.31
2022-07-31T14:38:27.793Z,28.66
2022-07-31T14:40:55.687Z,28.76
2022-07-31T14:43:23.106Z,28.87
2022-07-31T14:45:52.076Z,28.78
2022-07-31T14:48:19.718Z,28.83
2022-07-31T14:50:48.654Z,28.72
2022-07-31T14:53:16.083Z,28.84
2022-07-31T14:55:43.483Z,29.18
2022-07-31T14:58:10.924Z,29.04
2022-07-31T15:00:38.347Z,28.65
2022-07-31T15:03:05.805Z,28.48
2022-07-31T15:06:51.035Z,28.78
2022-07-31T15:08:21.950Z,28.49
2022-07-31T15:10:49.402Z,28.69
2022-07-31T15:13:16.810Z,28.55
2022-07-31T15:15:45.248Z,28.77
2022-07-31T15:18:12.704Z,28.58
2022-07-31T15:20:40.162Z,28.71
2022-07-31T15:23:07.586Z,28.64
2022-07-31T15:25:36.367Z,28.82
2022-07-31T15:28:04.068Z,28.71
2022-07-31T15:30:31.553Z,28.77
2022-07-31T15:32:59.002Z,28.69
2022-07-31T15:35:26.819Z,28.77
2022-07-31T15:37:54.316Z,28.68
2022-07-31T15:40:21.813Z,28.48
2022-07-31T15:42:50.639Z,28.50
2022-07-31T15:45:19.679Z,28.30
2022-07-31T15:47:48.103Z,28.25
2022-07-31T15:50:18.693Z,28.34
2022-07-31T15:52:46.161Z,28.17
2022-07-31T15:55:13.676Z,28.01
2022-07-31T15:57:41.179Z,27.92
2022-07-31T16:00:12.119Z,28.08
2022-07-31T16:02:39.772Z,28.30
2022-07-31T16:05:11.800Z,28.11
2022-07-31T16:08:29.095Z,27.92
2022-07-31T16:10:35.289Z,27.66
2022-07-31T16:13:02.716Z,27.60
2022-07-31T16:15:31.895Z,27.57
2022-07-31T16:17:59.341Z,27.65
2022-07-31T16:20:27.341Z,27.58
2022-07-31T16:22:56.492Z,27.64
2022-07-31T16:25:25.191Z,27.76
2022-07-31T16:27:52.688Z,27.72
2022-07-31T16:30:20.352Z,27.88
2022-07-31T16:32:49.542Z,27.77
2022-07-31T16:35:16.935Z,27.73
2022-07-31T16:37:52.165Z,27.82
2022-07-31T16:40:29.323Z,27.87
2022-07-31T16:43:01.600Z,27.79
2022-07-31T16:45:29.804Z,27.75
2022-07-31T16:47:59.337Z,27.67
2022-07-31T16:50:27.120Z,27.69
2022-07-31T16:52:55.336Z,27.53
2022-07-31T16:56:00.088Z,27.62
2022-07-31T16:58:11.813Z,27.58
2022-07-31T17:00:39.570Z,27.45
2022-07-31T17:03:59.361Z,27.51
2022-07-31T17:05:55.980Z,27.47
2022-07-31T17:08:23.393Z,27.37
2022-07-31T17:10:54.389Z,27.23
2022-07-31T17:13:22.392Z,27.12
2022-07-31T17:15:49.797Z,27.23
2022-07-31T17:18:18.753Z,27.20
2022-07-31T17:20:47.831Z,27.09
2022-07-31T17:23:15.686Z,27.02
2022-07-31T17:25:43.319Z,26.73
2022-07-31T17:28:15.064Z,26.67
2022-07-31T17:30:44.817Z,26.67
2022-07-31T17:33:12.287Z,26.59
2022-07-31T17:35:41.169Z,26.62
2022-07-31T17:38:08.616Z,26.49
2022-07-31T17:40:44.438Z,26.56
2022-07-31T17:43:13.293Z,26.41
2022-07-31T17:45:59.395Z,26.43
2022-07-31T17:48:28.620Z,26.40
2022-07-31T17:50:57.452Z,26.38
2022-07-31T17:53:31.116Z,26.39
2022-07-31T17:56:13.182Z,26.31
2022-07-31T17:58:40.852Z,26.42
2022-07-31T18:01:08.268Z,26.40
2022-07-31T18:03:35.699Z,26.47
2022-07-31T18:06:05.073Z,26.34
2022-07-31T18:08:32.638Z,26.14
2022-07-31T18:11:00.068Z,26.08
2022-07-31T18:13:27.467Z,26.01
2022-07-31T18:15:54.937Z,25.83
2022-07-31T18:18:22.353Z,25.79
2022-07-31T18:20:49.755Z,25.61
2022-07-31T18:23:18.474Z,25.56
2022-07-31T18:25:45.985Z,25.58
2022-07-31T18:28:13.501Z,25.51
2022-07-31T18:30:42.160Z,25.62
2022-07-31T18:33:10.799Z,25.58
2022-07-31T18:35:38.233Z,25.62
2022-07-31T18:38:05.647Z,25.61
2022-07-31T18:40:34.493Z,25.55
2022-07-31T18:43:03.624Z,25.56
2022-07-31T18:45:31.132Z,25.56
2022-07-31T18:47:58.896Z,25.59
2022-07-31T18:51:00.225Z,25.59
2022-07-31T18:53:14.814Z,25.59
2022-07-31T18:55:43.927Z,25.53
2022-07-31T18:58:11.376Z,25.62
2022-07-31T19:00:39.372Z,25.51
2022-07-31T19:03:07.847Z,25.51
2022-07-31T19:05:35.583Z,25.47
2022-07-31T19:08:03.437Z,25.37
2022-07-31T19:10:31.565Z,25.34
2022-07-31T19:13:00.819Z,25.24
2022-07-31T19:15:28.325Z,25.09
2022-07-31T19:17:58.780Z,24.98
2022-07-31T19:20:56.874Z,24.90
2022-07-31T19:23:17.147Z,24.89
2022-07-31T19:25:55.713Z,24.76
2022-07-31T19:28:33.066Z,24.76
2022-07-31T19:31:00.883Z,24.71
2022-07-31T19:33:28.348Z,24.76
2022-07-31T19:36:01.492Z,24.80
2022-07-31T19:38:31.044Z,24.71
2022-07-31T19:40:58.643Z,24.69
2022-07-31T19:43:26.201Z,24.65
2022-07-31T19:46:10.658Z,24.64
2022-07-31T19:48:40.800Z,24.57
2022-07-31T19:51:08.577Z,24.52
2022-07-31T19:53:36.110Z,24.57
2022-07-31T19:56:06.085Z,24.58
2022-07-31T19:58:34.505Z,24.60
2022-07-31T20:01:04.131Z,24.65
2022-07-31T20:03:31.912Z,24.56
2022-07-31T20:05:59.511Z,24.43
2022-07-31T20:08:27.055Z,24.50
2022-07-31T20:11:01.883Z,24.48
2022-07-31T20:13:30.056Z,24.43
2022-07-31T20:15:57.894Z,24.57
2022-07-31T20:18:28.928Z,24.44
2022-07-31T20:20:57.828Z,24.46
2022-07-31T20:23:25.352Z,24.38
2022-07-31T20:25:53.409Z,24.50
2022-07-31T20:28:20.882Z,24.54
2022-07-31T20:30:48.510Z,24.58
2022-07-31T20:33:16.004Z,24.45
2022-07-31T20:35:47.477Z,24.53
2022-07-31T20:38:16.990Z,24.45
2022-07-31T20:40:52.851Z,24.33
2022-07-31T20:43:20.693Z,24.28
2022-07-31T21:00:20.509Z,24.10
2022-07-31T21:02:47.947Z,24.01
2022-07-31T21:05:27.159Z,23.95
2022-07-31T21:07:56.494Z,24.01
2022-07-31T21:10:28.979Z,23.98
2022-07-31T21:12:57.070Z,23.94
2022-07-31T21:15:40.997Z,23.90
2022-07-31T21:18:11.051Z,23.95
2022-07-31T21:20:51.264Z,23.84
2022-07-31T21:23:21.528Z,23.77
2022-07-31T21:25:49.660Z,23.81
2022-07-31T21:28:17.795Z,23.85
2022-07-31T21:30:47.171Z,23.88
2022-07-31T21:33:14.993Z,23.90
2022-07-31T21:35:43.057Z,23.95
2022-07-31T21:38:11.925Z,23.79
2022-07-31T21:40:40.716Z,23.75
2022-07-31T21:43:08.648Z,23.64
2022-07-31T21:45:49.692Z,23.68
2022-07-31T21:48:24.799Z,23.63
2022-07-31T21:50:53.065Z,23.91
2022-07-31T21:53:20.489Z,23.55
2022-07-31T21:55:47.903Z,23.56
2022-07-31T21:58:15.336Z,23.32
2022-07-31T22:00:43.039Z,23.74
2022-07-31T22:03:10.588Z,23.47
2022-07-31T22:05:57.091Z,23.50
2022-07-31T22:08:24.539Z,23.40
2022-07-31T22:10:53.179Z,23.49
2022-07-31T22:13:21.020Z,23.45
2022-07-31T22:15:59.054Z,23.46
2022-07-31T22:18:28.877Z,23.45
2022-07-31T22:20:58.458Z,23.35
2022-07-31T22:23:26.647Z,23.41
2022-07-31T22:25:54.678Z,23.42
2022-07-31T22:28:23.420Z,23.31
2022-07-31T22:30:51.156Z,23.28
2022-07-31T22:33:19.196Z,23.36
2022-07-31T22:35:58.403Z,23.29
2022-07-31T22:38:30.777Z,23.35
2022-07-31T22:40:58.870Z,23.46
2022-07-31T22:44:11.626Z,23.36
2022-07-31T22:46:14.209Z,23.27
2022-07-31T22:48:41.775Z,23.33
2022-07-31T22:51:12.803Z,23.31
2022-07-31T22:53:44.314Z,23.32
2022-07-31T22:56:11.915Z,23.26
2022-07-31T22:58:39.359Z,23.30
2022-07-31T23:01:06.862Z,23.39
2022-07-31T23:03:34.367Z,23.36
2022-07-31T23:06:27.984Z,23.36
2022-07-31T23:08:54.647Z,23.42
2022-07-31T23:11:23.057Z,23.40
2022-07-31T23:13:50.488Z,23.37
2022-07-31T23:16:17.913Z,23.25
2022-07-31T23:18:45.316Z,23.24
2022-07-31T23:21:12.749Z,23.18
2022-07-31T23:23:40.143Z,23.17
2022-07-31T23:26:09.616Z,23.14
2022-07-31T23:28:37.078Z,22.93
2022-07-31T23:31:04.552Z,22.76
2022-07-31T23:33:32.037Z,22.84
2022-07-31T23:36:00.821Z,22.90
2022-07-31T23:38:28.247Z,22.85
2022-07-31T23:40:56.316Z,22.84
2022-07-31T23:43:24.501Z,22.72
2022-07-31T23:45:52.420Z,22.64
2022-07-31T23:48:21.047Z,22.62
2022-07-31T23:50:48.501Z,22.52
2022-07-31T23:53:16.332Z,22.35
2022-07-31T23:55:44.155Z,22.41
2022-07-31T23:58:12.163Z,22.35
